Time;durP1;ratioP1;P1;durP2;ratioP2;P2;SDS_P1;SDS_P2;PMS_P1;PMS_P2;Temp;Humidity;BMP_temperature;BMP_pressure;BME280_temperature;BME280_humidity;BME280_pressure;Samples;Min_cycle;Max_cycle;Signal;HPM_P1;HPM_P2
2023/02/13 00:00:44;;;;;;;14.55;10.40;;;9.30;99.90;;;;;;5015459;28;92432;-77
2023/02/13 00:03:14;;;;;;;14.43;10.77;;;9.30;99.90;;;;;;5046652;27;92424;-77
2023/02/13 00:05:41;;;;;;;14.02;10.43;;;9.30;99.90;;;;;;4993734;28;93823;-77
2023/02/13 00:08:08;;;;;;;15.10;10.55;;;9.20;99.90;;;;;;5027202;28;93348;-77
2023/02/13 00:10:36;;;;;;;14.35;10.40;;;9.30;99.90;;;;;;5026741;28;92526;-77
2023/02/13 00:13:03;;;;;;;17.80;11.35;;;9.30;99.90;;;;;;4994911;28;92460;-77
2023/02/13 00:15:30;;;;;;;14.82;10.27;;;9.40;99.90;;;;;;4993873;28;95622;-77
2023/02/13 00:17:57;;;;;;;14.07;10.20;;;9.40;99.90;;;;;;4994545;28;103176;-77
2023/02/13 00:20:24;;;;;;;18.40;10.80;;;9.40;99.90;;;;;;4995180;28;92413;-77
2023/02/13 00:22:51;;;;;;;13.82;10.80;;;9.50;99.90;;;;;;4994899;28;92472;-77
2023/02/13 00:25:18;;;;;;;15.25;10.40;;;9.50;99.90;;;;;;4993673;28;93213;-77
2023/02/13 00:27:45;;;;;;;16.13;10.50;;;9.50;99.90;;;;;;5010092;28;95252;-77
2023/02/13 00:30:15;;;;;;;13.50;9.88;;;9.50;99.90;;;;;;5026315;28;92546;-77
2023/02/13 00:32:43;;;;;;;16.30;10.02;;;9.50;99.90;;;;;;4978105;28;91764;-77
2023/02/13 00:35:10;;;;;;;16.05;10.77;;;9.50;99.90;;;;;;4994652;28;93278;-77
2023/02/13 00:37:37;;;;;;;15.07;10.93;;;9.50;99.90;;;;;;4994213;28;95768;-77
2023/02/13 00:40:04;;;;;;;15.27;10.85;;;9.40;99.90;;;;;;4995736;28;95261;-77
2023/02/13 00:42:31;;;;;;;17.50;11.13;;;9.40;99.90;;;;;;5013464;28;92470;-77
2023/02/13 00:44:58;;;;;;;19.30;11.88;;;9.40;99.90;;;;;;4998047;28;94866;-77
2023/02/13 00:47:25;;;;;;;19.52;11.80;;;9.40;99.90;;;;;;4996723;28;95650;-77
2023/02/13 00:49:52;;;;;;;17.10;11.50;;;9.40;99.90;;;;;;4997910;28;92503;-77
2023/02/13 00:52:19;;;;;;;17.33;10.98;;;9.40;99.90;;;;;;5013086;28;92512;-77
2023/02/13 00:54:46;;;;;;;20.58;12.57;;;9.40;99.90;;;;;;4998042;28;93256;-77
2023/02/13 00:57:13;;;;;;;16.67;10.77;;;9.40;99.90;;;;;;4996755;28;95738;-77
2023/02/13 00:59:41;;;;;;;18.10;11.50;;;9.40;99.90;;;;;;4996562;28;92491;-77
2023/02/13 01:02:08;;;;;;;16.08;10.68;;;9.40;99.90;;;;;;4996420;28;92705;-77
2023/02/13 01:04:35;;;;;;;15.30;10.80;;;9.40;99.90;;;;;;4995155;28;98284;-77
2023/02/13 01:07:02;;;;;;;16.83;11.52;;;9.40;99.90;;;;;;5012686;28;97929;-77
2023/02/13 01:09:29;;;;;;;15.82;11.43;;;9.40;99.90;;;;;;4980048;28;92476;-77
2023/02/13 01:11:56;;;;;;;18.45;12.15;;;9.30;99.90;;;;;;5012612;28;92530;-77
2023/02/13 01:14:23;;;;;;;17.77;11.55;;;9.30;99.90;;;;;;4997746;28;93636;-77
2023/02/13 01:16:50;;;;;;;17.33;11.88;;;9.30;99.90;;;;;;4997804;28;93081;-77
2023/02/13 01:19:17;;;;;;;16.95;12.23;;;9.40;99.90;;;;;;5029778;28;92391;-77
2023/02/13 01:21:44;;;;;;;17.40;11.88;;;9.30;99.90;;;;;;4997864;28;91705;-77
2023/02/13 01:24:11;;;;;;;16.85;11.30;;;9.30;99.90;;;;;;4995862;28;98163;-77
2023/02/13 01:26:38;;;;;;;18.33;11.82;;;9.30;99.90;;;;;;4997587;28;93056;-77
2023/02/13 01:29:06;;;;;;;15.77;11.23;;;9.30;99.90;;;;;;4995107;28;94832;-77
2023/02/13 01:31:33;;;;;;;18.58;10.75;;;9.30;99.90;;;;;;4996343;28;92665;-77
2023/02/13 01:34:00;;;;;;;17.15;12.00;;;9.40;99.90;;;;;;5029135;28;93974;-77
2023/02/13 01:36:27;;;;;;;15.13;11.55;;;9.40;99.90;;;;;;4996187;28;96014;-77
2023/02/13 01:38:56;;;;;;;17.55;11.82;;;9.30;99.90;;;;;;4996279;28;92563;-77
2023/02/13 01:41:24;;;;;;;15.98;10.88;;;9.40;99.90;;;;;;4997495;28;92865;-77
2023/02/13 01:43:54;;;;;;;18.10;11.95;;;9.30;99.90;;;;;;5029333;28;93279;-77
2023/02/13 01:46:41;;;;;;;18.73;12.30;;;9.30;99.90;;;;;;5012759;28;95887;-77
2023/02/13 01:49:17;;;;;;;18.45;11.80;;;9.40;99.90;;;;;;4978566;28;92472;-77
2023/02/13 01:51:46;;;;;;;16.40;11.38;;;9.30;99.90;;;;;;4997346;28;92474;-77
2023/02/13 01:54:18;;;;;;;17.88;12.18;;;9.30;99.90;;;;;;5027334;28;95597;-77
2023/02/13 01:56:54;;;;;;;17.27;11.57;;;9.30;99.90;;;;;;4995713;28;98002;-77
2023/02/13 01:59:29;;;;;;;18.45;12.18;;;9.30;99.90;;;;;;4979441;28;92563;-77
2023/02/13 02:01:58;;;;;;;17.05;11.07;;;9.30;99.90;;;;;;4995946;28;92538;-77
2023/02/13 02:04:32;;;;;;;21.90;11.75;;;9.20;99.90;;;;;;4995183;28;95670;-77
2023/02/13 02:07:12;;;;;;;21.23;11.93;;;9.30;99.90;;;;;;4995171;28;94940;-77
2023/02/13 02:09:41;;;;;;;18.73;11.57;;;9.30;99.90;;;;;;4995418;28;92447;-77
2023/02/13 02:12:21;;;;;;;18.77;11.95;;;9.20;99.90;;;;;;4995810;28;91792;-77
2023/02/13 02:14:49;;;;;;;14.57;11.35;;;9.20;99.90;;;;;;4995768;28;92649;-77
2023/02/13 02:17:18;;;;;;;17.15;11.80;;;9.20;99.90;;;;;;4995315;28;95777;-77
2023/02/13 02:19:57;;;;;;;17.27;12.23;;;9.20;99.90;;;;;;4994139;28;94916;-77
2023/02/13 02:22:46;;;;;;;17.15;11.85;;;9.30;99.90;;;;;;5028644;28;92526;-77
2023/02/13 02:25:22;;;;;;;18.15;11.88;;;9.30;99.90;;;;;;5028411;28;95951;-77
2023/02/13 02:27:55;;;;;;;18.45;11.27;;;9.30;99.90;;;;;;4978827;28;95555;-77
2023/02/13 02:31:02;;;;;;;19.60;11.60;;;9.20;99.90;;;;;;5028470;28;92540;-77
2023/02/13 02:33:48;;;;;;;16.40;11.77;;;9.30;99.90;;;;;;4995133;28;92979;-77
2023/02/13 02:36:35;;;;;;;17.60;11.77;;;9.20;99.90;;;;;;4994621;28;96125;-77
2023/02/13 02:39:24;;;;;;;15.85;10.77;;;9.20;99.90;;;;;;4978894;28;95687;-77
2023/02/13 02:42:12;;;;;;;19.80;12.00;;;9.20;99.90;;;;;;4995158;28;92393;-77
2023/02/13 02:44:39;;;;;;;17.42;12.00;;;9.20;99.90;;;;;;4996689;28;92423;-77
2023/02/13 02:50:36;;;;;;;20.65;12.32;;;9.20;99.90;;;;;;4994620;28;98116;-77
2023/02/13 02:53:27;;;;;;;16.25;11.60;;;9.20;99.90;;;;;;4994955;28;92583;-77
2023/02/13 02:56:15;;;;;;;18.20;12.07;;;9.20;99.90;;;;;;4978610;28;92546;-77
2023/02/13 03:07:26;;;;;;;17.77;12.45;;;9.10;99.90;;;;;;4995214;28;91709;-77
2023/02/13 03:24:45;;;;;;;18.48;12.38;;;9.20;99.90;;;;;;4994032;28;95975;-77
2023/02/13 03:31:01;;;;;;;17.67;11.35;;;9.20;99.90;;;;;;4995752;28;92364;-77
2023/02/13 03:33:58;;;;;;;18.15;12.27;;;9.20;99.90;;;;;;4995817;28;93304;-77
2023/02/13 03:40:04;;;;;;;16.23;11.40;;;9.20;99.90;;;;;;4995671;28;92443;-77
2023/02/13 03:42:36;;;;;;;17.58;12.07;;;9.20;99.90;;;;;;4995402;28;92954;-77
2023/02/13 03:45:51;;;;;;;20.88;12.57;;;9.20;99.90;;;;;;4994376;28;95601;-77
2023/02/13 03:51:12;;;;;;;18.27;12.30;;;9.20;99.90;;;;;;4993780;28;92482;-77
2023/02/13 03:53:43;;;;;;;18.35;12.05;;;9.20;99.90;;;;;;4995500;28;92427;-77
2023/02/13 03:59:15;;;;;;;18.30;12.45;;;9.10;99.90;;;;;;4993789;28;95601;-77
2023/02/13 04:02:18;;;;;;;20.45;13.00;;;9.10;99.90;;;;;;4995604;28;92695;-77
2023/02/13 04:04:49;;;;;;;20.45;13.00;;;9.10;99.90;;;;;;4994826;28;91791;-77
2023/02/13 04:07:28;;;;;;;19.00;12.23;;;9.10;99.90;;;;;;4993969;28;93241;-77
2023/02/13 04:09:59;;;;;;;19.27;13.15;;;9.10;99.90;;;;;;5010094;28;95841;-77
2023/02/13 04:13:07;;;;;;;21.80;13.20;;;9.10;99.90;;;;;;4991887;28;94914;-77
2023/02/13 04:15:59;;;;;;;19.77;12.70;;;9.20;99.90;;;;;;4993792;28;92440;-77
2023/02/13 04:18:31;;;;;;;20.13;12.57;;;9.10;99.90;;;;;;4993503;28;95926;-77
2023/02/13 04:21:06;;;;;;;22.63;13.30;;;9.10;99.90;;;;;;4994919;28;93070;-77
2023/02/13 04:23:34;;;;;;;21.92;13.27;;;9.10;99.90;;;;;;4993511;28;92488;-77
2023/02/13 04:26:07;;;;;;;17.88;11.48;;;9.10;99.90;;;;;;4995033;28;92433;-77
2023/02/13 04:28:34;;;;;;;20.35;12.27;;;9.20;99.90;;;;;;4995142;28;93341;-77
2023/02/13 04:31:01;;;;;;;21.58;13.52;;;9.20;99.90;;;;;;4995654;28;92953;-77
2023/02/13 04:33:28;;;;;;;21.98;12.45;;;9.20;99.90;;;;;;5026540;28;92447;-77
2023/02/13 04:35:55;;;;;;;19.90;13.45;;;9.20;99.90;;;;;;5027096;28;92700;-77
2023/02/13 04:38:22;;;;;;;20.90;13.02;;;9.20;99.90;;;;;;4992099;28;98578;-77
2023/02/13 04:40:49;;;;;;;20.98;13.02;;;9.20;99.90;;;;;;5026669;28;95420;-77
2023/02/13 04:43:16;;;;;;;19.55;12.70;;;9.20;99.90;;;;;;4993503;28;92464;-77
2023/02/13 04:45:50;;;;;;;20.23;13.60;;;9.20;99.90;;;;;;4994583;28;92411;-77
2023/02/13 04:48:17;;;;;;;;;;;9.20;99.90;;;;;;4995092;28;93280;-77
2023/02/13 04:50:44;;;;;;;20.38;12.55;;;9.10;99.90;;;;;;4996089;28;92626;-77
2023/02/13 04:53:11;;;;;;;21.95;13.50;;;9.10;99.90;;;;;;4993574;28;92492;-77
2023/02/13 04:55:38;;;;;;;20.60;13.45;;;9.10;99.90;;;;;;5009647;28;99337;-77
2023/02/13 04:58:06;;;;;;;22.48;15.07;;;9.20;99.90;;;;;;5010083;28;93367;-77
2023/02/13 05:00:32;;;;;;;22.90;14.52;;;9.10;99.90;;;;;;5009566;28;93203;-77
2023/02/13 05:03:11;;;;;;;20.33;12.52;;;9.10;99.90;;;;;;4993442;28;94718;-77
2023/02/13 05:05:39;;;;;;;19.95;13.07;;;9.20;99.90;;;;;;5009553;28;92513;-77
2023/02/13 05:08:07;;;;;;;20.30;12.82;;;9.10;99.90;;;;;;4994316;28;93387;-77
2023/02/13 05:10:34;;;;;;;18.95;13.10;;;9.10;99.90;;;;;;4994304;28;93045;-77
2023/02/13 05:13:01;;;;;;;22.70;13.30;;;9.10;99.90;;;;;;4992824;28;92425;-77
2023/02/13 05:15:28;;;;;;;21.73;13.07;;;9.10;99.90;;;;;;4976405;28;92532;-77
2023/02/13 05:17:55;;;;;;;20.00;13.77;;;9.10;99.90;;;;;;4994524;28;94186;-77
2023/02/13 05:20:22;;;;;;;21.92;13.32;;;9.10;99.90;;;;;;5026696;28;93177;-77
2023/02/13 05:25:39;;;;;;;20.77;12.35;;;9.10;99.90;;;;;;4996688;28;92365;-77
2023/02/13 05:29:17;;;;;;;19.75;13.32;;;9.10;99.90;;;;;;5011380;28;98272;-77
2023/02/13 05:30:54;;;;;;;21.05;12.90;;;9.10;99.90;;;;;;4997066;28;95658;-77
2023/02/13 05:33:21;;;;;;;19.60;12.77;;;9.10;99.90;;;;;;4996222;28;92357;-77
2023/02/13 05:35:48;;;;;;;23.92;13.27;;;9.10;99.90;;;;;;4997280;28;94421;-77
2023/02/13 05:38:15;;;;;;;20.17;12.88;;;9.10;99.90;;;;;;5012518;28;93286;-77
2023/02/13 05:40:42;;;;;;;20.67;12.85;;;9.10;99.90;;;;;;4997248;28;93115;-77
2023/02/13 05:43:09;;;;;;;21.05;13.85;;;9.10;99.90;;;;;;5012740;28;92459;-77
2023/02/13 05:45:36;;;;;;;20.58;13.70;;;9.10;99.90;;;;;;4996738;28;91648;-77
2023/02/13 05:48:03;;;;;;;20.77;13.73;;;9.10;99.90;;;;;;4996266;28;93244;-77
2023/02/13 05:50:30;;;;;;;19.70;12.90;;;9.10;99.90;;;;;;4996640;28;92835;-77
2023/02/13 05:52:57;;;;;;;19.98;12.40;;;9.10;99.90;;;;;;4996229;28;95431;-77
2023/02/13 05:55:24;;;;;;;23.17;14.23;;;9.00;99.90;;;;;;4997265;28;92348;-77
2023/02/13 05:57:56;;;;;;;23.42;14.80;;;9.00;99.90;;;;;;5028682;28;93130;-77
2023/02/13 06:00:24;;;;;;;20.83;13.20;;;9.00;99.90;;;;;;4997220;28;93244;-77
2023/02/13 06:02:51;;;;;;;21.73;13.90;;;9.00;99.90;;;;;;4995156;28;96730;-77
2023/02/13 06:05:18;;;;;;;23.90;14.13;;;9.00;99.90;;;;;;4995389;28;92560;-77
2023/02/13 06:07:45;;;;;;;21.08;13.98;;;9.00;99.90;;;;;;5012041;28;92518;-77
2023/02/13 06:10:12;;;;;;;20.45;13.93;;;9.00;99.90;;;;;;4979208;28;95990;-77
2023/02/13 06:12:39;;;;;;;22.98;14.98;;;9.00;99.90;;;;;;5028716;28;92387;-77
2023/02/13 06:15:06;;;;;;;23.38;14.27;;;9.00;99.90;;;;;;4979003;28;92572;-77
2023/02/13 06:17:33;;;;;;;20.58;14.00;;;9.00;99.90;;;;;;5010803;28;95622;-77
2023/02/13 06:20:00;;;;;;;20.63;13.73;;;9.00;99.90;;;;;;5028354;28;98035;-77
2023/02/13 06:22:27;;;;;;;22.00;14.50;;;9.00;99.90;;;;;;5029025;28;92524;-77
2023/02/13 06:24:54;;;;;;;22.30;14.35;;;9.00;99.90;;;;;;5011626;28;92507;-77
2023/02/13 06:27:21;;;;;;;20.33;13.07;;;9.00;99.90;;;;;;5028578;28;93329;-77
2023/02/13 06:29:48;;;;;;;21.05;13.48;;;9.00;99.90;;;;;;4995094;28;95912;-77
2023/02/13 06:32:15;;;;;;;18.15;12.57;;;9.00;99.90;;;;;;4995072;28;92447;-77
2023/02/13 06:34:42;;;;;;;24.75;14.63;;;9.00;99.90;;;;;;4996803;28;91728;-77
2023/02/13 06:37:09;;;;;;;22.38;13.50;;;9.00;99.90;;;;;;4996290;28;93158;-77
2023/02/13 06:39:36;;;;;;;21.30;13.40;;;9.00;99.90;;;;;;4995156;28;93068;-77
2023/02/13 06:42:03;;;;;;;23.60;14.35;;;9.00;99.90;;;;;;4977014;28;101562;-77
2023/02/13 06:44:30;;;;;;;24.95;15.48;;;9.00;99.90;;;;;;4996860;28;92515;-78
2023/02/13 06:46:57;;;;;;;23.92;14.55;;;9.00;99.90;;;;;;4994591;28;93294;-77
2023/02/13 06:49:24;;;;;;;22.80;14.85;;;9.00;99.90;;;;;;5028221;28;93033;-77
2023/02/13 06:51:51;;;;;;;22.85;14.75;;;9.00;99.90;;;;;;4995763;28;92514;-77
2023/02/13 06:54:18;;;;;;;22.67;14.18;;;9.00;99.90;;;;;;4994921;28;92514;-77
2023/02/13 06:56:45;;;;;;;19.92;13.95;;;9.00;99.90;;;;;;4995975;28;93153;-77
2023/02/13 06:59:12;;;;;;;22.60;13.35;;;9.00;99.90;;;;;;4996458;28;93042;-77
2023/02/13 07:01:39;;;;;;;20.50;13.30;;;9.00;99.90;;;;;;4996366;28;92593;-77
2023/02/13 07:04:06;;;;;;;20.42;13.68;;;9.00;99.90;;;;;;4994592;28;92520;-77
2023/02/13 07:06:33;;;;;;;21.52;13.73;;;8.90;99.90;;;;;;5010101;28;94867;-77
2023/02/13 07:09:02;;;;;;;24.77;15.25;;;8.90;99.90;;;;;;4995692;28;95498;-77
2023/02/13 07:11:30;;;;;;;25.05;14.85;;;8.90;99.90;;;;;;4994737;28;92338;-77
2023/02/13 07:13:57;;;;;;;22.35;13.80;;;8.90;99.90;;;;;;4995540;28;92499;-77
2023/02/13 07:16:24;;;;;;;21.80;13.93;;;8.90;99.90;;;;;;5027566;28;92463;-77
2023/02/13 07:18:51;;;;;;;23.13;13.73;;;9.00;99.90;;;;;;5027333;28;93409;-77
2023/02/13 07:21:18;;;;;;;23.85;14.80;;;8.90;99.90;;;;;;5010992;28;92587;-77
2023/02/13 07:23:45;;;;;;;23.58;13.93;;;9.00;99.90;;;;;;5011452;28;91590;-77
2023/02/13 07:26:12;;;;;;;19.40;12.75;;;9.00;99.90;;;;;;4994456;28;93163;-78
2023/02/13 07:28:39;;;;;;;21.13;13.27;;;9.00;99.90;;;;;;4993957;28;93147;-77
2023/02/13 07:31:06;;;;;;;20.13;14.07;;;9.00;99.90;;;;;;5026122;28;94896;-77
2023/02/13 07:33:33;;;;;;;23.35;13.40;;;9.00;99.90;;;;;;4977847;28;92540;-77
2023/02/13 07:36:02;;;;;;;20.40;13.38;;;9.10;99.90;;;;;;4993987;28;93290;-77
2023/02/13 07:38:32;;;;;;;22.00;14.38;;;9.10;99.90;;;;;;4995468;28;93191;-77
2023/02/13 07:41:01;;;;;;;23.17;13.68;;;9.10;99.90;;;;;;4995414;28;92333;-77
2023/02/13 07:43:29;;;;;;;24.95;14.50;;;9.10;99.90;;;;;;5027574;28;92861;-77
2023/02/13 07:46:00;;;;;;;22.95;14.45;;;9.20;99.90;;;;;;4993838;28;93185;-77
2023/02/13 07:48:28;;;;;;;23.85;14.63;;;9.20;99.90;;;;;;4993532;28;93196;-77
2023/02/13 07:51:00;;;;;;;20.80;13.07;;;9.20;99.90;;;;;;5026550;28;92541;-78
2023/02/13 07:53:30;;;;;;;22.83;13.75;;;9.30;99.90;;;;;;4995707;28;93299;-77
2023/02/13 07:55:57;;;;;;;24.60;14.07;;;9.20;99.90;;;;;;4992079;28;98294;-77
2023/02/13 07:58:25;;;;;;;24.40;14.52;;;9.30;99.90;;;;;;5026765;28;95755;-77
2023/02/13 08:00:52;;;;;;;24.23;14.98;;;9.30;99.90;;;;;;4995453;28;92757;-77
2023/02/13 08:03:19;;;;;;;25.70;15.82;;;9.30;99.90;;;;;;5010311;28;92557;-77
2023/02/13 08:05:48;;;;;;;24.30;15.10;;;9.30;99.90;;;;;;5027436;28;93412;-77
2023/02/13 08:08:15;;;;;;;26.50;16.52;;;9.30;99.90;;;;;;4993095;28;95756;-77
2023/02/13 08:13:28;;;;;;;23.50;14.85;;;9.30;99.90;;;;;;4994157;28;91698;-77
2023/02/13 08:15:55;;;;;;;25.88;15.23;;;9.40;99.90;;;;;;4993339;28;95739;-77
2023/02/13 08:18:22;;;;;;;25.85;15.55;;;9.40;99.90;;;;;;4994042;28;93257;-77
2023/02/13 08:20:49;;;;;;;25.58;15.60;;;9.40;99.90;;;;;;4993839;28;94890;-77
2023/02/13 08:23:16;;;;;;;25.88;15.35;;;9.50;99.90;;;;;;4995558;28;92373;-77
2023/02/13 08:25:43;;;;;;;25.92;15.88;;;9.50;99.90;;;;;;4994755;28;93200;-77
2023/02/13 08:28:10;;;;;;;25.33;14.98;;;9.50;99.90;;;;;;4994771;28;93645;-77
2023/02/13 08:30:37;;;;;;;28.10;15.98;;;9.50;99.90;;;;;;5010295;28;92546;-77
2023/02/13 08:33:04;;;;;;;22.92;15.15;;;9.50;99.90;;;;;;5009989;28;93435;-77
2023/02/13 08:35:31;;;;;;;26.13;15.77;;;9.60;99.90;;;;;;5026607;28;93167;-77
2023/02/13 08:38:04;;;;;;;23.83;14.95;;;9.60;99.90;;;;;;4993566;28;95572;-77
2023/02/13 08:40:32;;;;;;;20.80;14.48;;;9.60;99.90;;;;;;5026906;28;93124;-77
2023/02/13 08:43:01;;;;;;;23.67;15.63;;;9.60;99.90;;;;;;4994668;28;92593;-77
2023/02/13 08:45:28;;;;;;;28.08;16.30;;;9.70;99.90;;;;;;4993321;28;95657;-77
2023/02/13 08:47:58;;;;;;;27.02;16.50;;;9.70;99.90;;;;;;4994207;28;95464;-77
2023/02/13 08:50:27;;;;;;;22.98;15.57;;;9.70;99.90;;;;;;4994661;28;92533;-77
2023/02/13 08:52:54;;;;;;;22.90;15.38;;;9.70;99.90;;;;;;5009968;28;92765;-77
2023/02/13 08:55:20;;;;;;;25.08;15.18;;;9.70;99.90;;;;;;5026485;28;92456;-77
2023/02/13 08:57:48;;;;;;;20.90;14.05;;;9.80;99.90;;;;;;4994666;28;92397;-77
2023/02/13 09:00:15;;;;;;;22.77;15.13;;;9.80;99.90;;;;;;4996657;28;92475;-77
2023/02/13 09:02:42;;;;;;;25.73;15.35;;;9.80;99.90;;;;;;4998517;28;91737;-77
2023/02/13 09:05:09;;;;;;;26.75;15.98;;;9.80;99.90;;;;;;4996362;28;93371;-77
2023/02/13 09:07:36;;;;;;;24.05;15.50;;;9.80;99.90;;;;;;4996428;28;95539;-77
2023/02/13 09:10:04;;;;;;;26.27;15.90;;;9.80;99.90;;;;;;4996565;28;94785;-77
2023/02/13 09:12:31;;;;;;;22.30;15.13;;;9.90;99.90;;;;;;4997953;28;92476;-77
2023/02/13 09:14:58;;;;;;;23.35;15.50;;;9.90;99.90;;;;;;4997836;28;93504;-77
2023/02/13 09:17:25;;;;;;;23.75;15.20;;;9.90;99.90;;;;;;4996119;28;96235;-77
2023/02/13 09:19:52;;;;;;;22.92;14.77;;;9.90;99.90;;;;;;5030067;28;92970;-77
2023/02/13 09:22:19;;;;;;;23.55;15.43;;;10.00;99.90;;;;;;4996271;28;92579;-77
2023/02/13 09:24:45;;;;;;;23.48;15.52;;;10.00;99.90;;;;;;4996477;28;92561;-77
2023/02/13 09:27:12;;;;;;;24.88;16.35;;;10.00;99.90;;;;;;5029815;28;93036;-77
2023/02/13 09:29:39;;;;;;;24.05;14.75;;;10.00;99.90;;;;;;5012650;28;92906;-77
2023/02/13 09:32:06;;;;;;;21.55;15.02;;;10.00;99.90;;;;;;5012696;28;92565;-77
2023/02/13 09:34:34;;;;;;;22.63;14.35;;;10.10;99.90;;;;;;5011502;28;98007;-77
2023/02/13 09:37:01;;;;;;;23.65;14.63;;;10.10;99.90;;;;;;4979344;28;97219;-77
2023/02/13 09:39:28;;;;;;;26.52;15.55;;;10.10;99.90;;;;;;4996451;28;92989;-77
2023/02/13 09:41:55;;;;;;;24.90;15.82;;;10.20;99.90;;;;;;4997778;28;92331;-77
2023/02/13 09:44:37;;;;;;;24.02;15.43;;;10.20;99.90;;;;;;4995479;28;96180;-77
2023/02/13 09:47:36;;;;;;;23.48;15.40;;;10.30;99.90;;;;;;4995968;28;94507;-77
2023/02/13 09:50:13;;;;;;;23.98;16.25;;;10.30;99.90;;;;;;4997384;28;92420;-77
2023/02/13 09:52:43;;;;;;;27.67;16.38;;;10.30;99.90;;;;;;4995790;28;91733;-77
2023/02/13 09:55:20;;;;;;;22.77;14.70;;;10.30;99.90;;;;;;4995414;28;93258;-77
2023/02/13 09:58:19;;;;;;;22.67;15.55;;;10.30;99.90;;;;;;5012433;28;95844;-77
2023/02/13 10:00:51;;;;;;;24.30;16.67;;;10.30;99.90;;;;;;4996116;28;94826;-77
2023/02/13 10:03:27;;;;;;;22.85;15.18;;;10.30;99.90;;;;;;5012221;28;92454;-77
2023/02/13 10:06:29;;;;;;;24.17;14.98;;;10.40;99.90;;;;;;4995686;28;93327;-77
2023/02/13 10:09:16;;;;;;;23.85;15.77;;;10.50;99.90;;;;;;4995602;28;93364;-77
2023/02/13 10:11:52;;;;;;;24.10;15.38;;;10.50;99.90;;;;;;4995073;28;92938;-77
2023/02/13 10:14:31;;;;;;;27.83;15.65;;;10.50;99.90;;;;;;4995343;28;92775;-77
2023/02/13 10:17:09;;;;;;;24.92;16.08;;;10.60;99.90;;;;;;4996960;28;93147;-77
2023/02/13 10:19:48;;;;;;;23.27;14.95;;;10.70;99.90;;;;;;4997204;28;93075;-77
2023/02/13 10:22:16;;;;;;;24.58;15.70;;;10.70;99.90;;;;;;4996843;28;92465;-77
2023/02/13 10:24:53;;;;;;;22.65;14.43;;;10.70;99.90;;;;;;4978782;28;92543;-77
2023/02/13 10:27:27;;;;;;;24.10;15.65;;;10.80;99.90;;;;;;4993950;28;95540;-77
2023/02/13 10:30:05;;;;;;;24.23;14.88;;;10.90;99.90;;;;;;5010838;28;98090;-77
2023/02/13 10:36:04;;;;;;;23.50;13.32;;;11.00;99.90;;;;;;4995112;28;92469;-77
2023/02/13 10:38:33;;;;;;;22.95;15.60;;;11.00;99.90;;;;;;4996234;28;93351;-77
2023/02/13 10:41:10;;;;;;;23.23;13.85;;;11.00;99.90;;;;;;4994804;28;94224;-77
2023/02/13 10:44:22;;;;;;;24.17;15.90;;;11.00;99.90;;;;;;4994904;28;92679;-77
2023/02/13 10:47:04;;;;;;;22.45;14.43;;;11.00;99.90;;;;;;5001223;28;92317;-77
2023/02/13 10:50:02;;;;;;;26.23;15.73;;;11.10;99.90;;;;;;4996047;28;93177;-77
2023/02/13 10:52:32;;;;;;;22.10;15.10;;;11.10;99.90;;;;;;4994467;28;93236;-77
2023/02/13 10:55:26;;;;;;;22.25;16.38;;;11.00;99.90;;;;;;4993687;28;94787;-77
2023/02/13 10:58:14;;;;;;;21.88;14.25;;;11.10;99.90;;;;;;4996326;28;93061;-77
2023/02/13 11:00:52;;;;;;;20.35;13.50;;;11.10;99.90;;;;;;4994813;28;93403;-77
2023/02/13 11:03:25;;;;;;;21.48;14.23;;;11.00;99.90;;;;;;4996528;28;92996;-77
2023/02/13 11:05:53;;;;;;;22.48;15.23;;;11.10;99.90;;;;;;4994364;28;92561;-77
2023/02/13 11:08:30;;;;;;;21.35;14.32;;;11.10;99.90;;;;;;4994330;28;93131;-78
2023/02/13 11:10:57;;;;;;;24.90;15.23;;;11.10;99.90;;;;;;4995992;28;93163;-77
2023/02/13 11:13:27;;;;;;;23.08;13.68;;;11.10;99.90;;;;;;4994516;28;96114;-77
2023/02/13 11:15:59;;;;;;;22.50;14.70;;;11.20;99.90;;;;;;4995832;28;92869;-77
2023/02/13 11:18:30;;;;;;;21.60;15.20;;;11.30;99.90;;;;;;4995781;28;92417;-77
2023/02/13 11:21:22;;;;;;;24.48;14.35;;;11.40;99.90;;;;;;4993037;28;98302;-77
2023/02/13 11:23:53;;;;;;;21.65;15.18;;;11.50;99.90;;;;;;4997345;28;95776;-77
2023/02/13 11:26:31;;;;;;;23.60;15.25;;;11.50;99.90;;;;;;4996079;28;92350;-77
2023/02/13 11:29:16;;;;;;;22.08;14.88;;;11.50;99.90;;;;;;4994489;28;92682;-77
2023/02/13 11:31:43;;;;;;;21.70;14.15;;;11.60;99.90;;;;;;4996052;28;93077;-77
2023/02/13 11:34:29;;;;;;;21.13;15.20;;;11.60;99.90;;;;;;4995695;28;93210;-77
2023/02/13 11:37:16;;;;;;;21.35;14.80;;;11.70;99.90;;;;;;5010346;28;92435;-78
2023/02/13 11:39:46;;;;;;;21.88;14.52;;;11.80;99.90;;;;;;4994254;28;91782;-77
2023/02/13 11:42:27;;;;;;;22.10;14.75;;;11.70;99.90;;;;;;4995883;28;93158;-77
2023/02/13 11:44:58;;;;;;;22.17;13.93;;;11.80;99.90;;;;;;4995531;28;93023;-76
2023/02/13 11:47:42;;;;;;;22.65;14.80;;;11.80;99.90;;;;;;4992557;28;94973;-77
2023/02/13 11:50:28;;;;;;;22.98;15.00;;;11.90;99.90;;;;;;4995331;28;93149;-76
2023/02/13 11:53:07;;;;;;;22.65;14.15;;;11.90;99.90;;;;;;4993665;28;94125;-77
2023/02/13 11:55:37;;;;;;;22.50;13.55;;;11.80;99.90;;;;;;4995130;28;92969;-76
2023/02/13 11:58:10;;;;;;;21.38;14.45;;;11.80;99.90;;;;;;5010695;28;92447;-76
2023/02/13 12:00:40;;;;;;;23.25;15.32;;;11.90;99.90;;;;;;4995511;28;92623;-76
2023/02/13 12:03:25;;;;;;;21.90;14.52;;;12.00;99.90;;;;;;4977267;28;94317;-77
2023/02/13 12:06:12;;;;;;;20.77;13.98;;;12.10;99.90;;;;;;4993859;28;95456;-77
2023/02/13 12:08:42;;;;;;;21.45;14.63;;;12.10;99.90;;;;;;5010592;28;93271;-77
2023/02/13 12:11:15;;;;;;;24.50;15.38;;;12.10;99.90;;;;;;5010227;28;92541;-77
2023/02/13 12:13:43;;;;;;;23.70;16.23;;;12.10;99.90;;;;;;4993794;28;95607;-76
2023/02/13 12:16:29;;;;;;;24.42;16.52;;;12.10;99.90;;;;;;5009858;28;100816;-76
2023/02/13 12:19:01;;;;;;;21.20;15.32;;;12.20;99.90;;;;;;4995226;28;92436;-76
2023/02/13 12:21:46;;;;;;;23.00;15.85;;;12.20;99.90;;;;;;4993789;28;92500;-76
2023/02/13 12:24:22;;;;;;;23.05;16.23;;;12.30;99.90;;;;;;4993731;28;93221;-76
2023/02/13 12:27:18;;;;;;;24.83;16.17;;;12.30;99.90;;;;;;4994567;28;93009;-76
2023/02/13 12:30:19;;;;;;;27.05;15.50;;;12.40;99.90;;;;;;5001988;28;92533;-76
2023/02/13 12:32:59;;;;;;;22.75;16.08;;;12.50;99.90;;;;;;4993661;28;91769;-77
2023/02/13 12:35:54;;;;;;;23.63;14.65;;;12.50;99.90;;;;;;4997067;28;93301;-76
2023/02/13 12:38:30;;;;;;;25.15;16.30;;;12.60;99.90;;;;;;4997126;28;93315;-77
2023/02/13 12:41:30;;;;;;;21.58;15.88;;;12.60;99.90;;;;;;4996996;28;94833;-77
2023/02/13 12:44:16;;;;;;;27.17;17.60;;;12.70;99.90;;;;;;4998153;28;92496;-76
2023/02/13 12:46:51;;;;;;;23.10;16.52;;;12.70;99.90;;;;;;4998046;28;92480;-76
2023/02/13 12:49:45;;;;;;;27.15;17.80;;;12.70;99.90;;;;;;4998273;28;93304;-77
2023/02/13 12:52:15;;;;;;;;;;;12.80;99.90;;;;;;4996623;28;92518;-76
2023/02/13 12:55:08;;;;;;;23.90;16.05;;;12.70;99.90;;;;;;4999502;28;92460;-76
2023/02/13 12:57:56;;;;;;;25.48;17.90;;;12.80;99.90;;;;;;4998146;28;93597;-76
2023/02/13 13:01:16;;;;;;;24.35;16.15;;;12.80;99.90;;;;;;4998246;28;91931;-77
2023/02/13 13:04:22;;;;;;;22.75;13.52;;;12.80;99.90;;;;;;4974755;28;92412;-77
2023/02/13 13:06:49;;;;;;;23.52;16.13;;;12.70;99.90;;;;;;4981891;28;92598;-77
2023/02/13 13:09:24;;;;;;;27.13;16.92;;;12.70;99.90;;;;;;4997352;28;95833;-77
2023/02/13 13:12:19;;;;;;;24.63;17.63;;;12.80;99.90;;;;;;4995446;28;95750;-77
2023/02/13 13:15:28;;;;;;;22.65;16.13;;;12.90;99.90;;;;;;4997787;28;92462;-77
2023/02/13 13:18:24;;;;;;;24.17;16.23;;;12.80;99.90;;;;;;4997346;28;92515;-77
2023/02/13 13:21:26;;;;;;;24.63;16.65;;;12.80;99.90;;;;;;5011775;28;96214;-76
2023/02/13 13:24:22;;;;;;;22.98;16.58;;;12.90;99.90;;;;;;4995823;28;93074;-76
2023/02/13 13:26:53;;;;;;;29.27;19.00;;;12.90;99.90;;;;;;4979586;28;93197;-76
2023/02/13 13:29:35;;;;;;;23.48;17.20;;;12.90;99.90;;;;;;4998263;28;92634;-76
2023/02/13 13:32:06;;;;;;;26.20;17.30;;;13.00;99.90;;;;;;4995680;28;95834;-76
2023/02/13 13:34:36;;;;;;;25.52;17.85;;;13.00;99.90;;;;;;4995955;28;95710;-76
2023/02/13 13:37:22;;;;;;;24.15;17.42;;;13.00;99.90;;;;;;4995861;28;94756;-76
2023/02/13 13:39:59;;;;;;;28.05;18.10;;;13.10;99.90;;;;;;4997570;28;92683;-77
2023/02/13 13:42:47;;;;;;;24.88;18.17;;;13.10;99.90;;;;;;4996128;28;93437;-76
2023/02/13 13:45:26;;;;;;;23.10;16.10;;;13.10;99.90;;;;;;4996325;28;92959;-76
2023/02/13 13:48:08;;;;;;;27.05;18.23;;;13.10;99.90;;;;;;4995696;28;92501;-76
2023/02/13 13:50:39;;;;;;;24.80;17.52;;;13.10;99.90;;;;;;4997096;28;92426;-76
2023/02/13 13:53:12;;;;;;;25.60;18.52;;;13.00;99.90;;;;;;4997228;28;93409;-76